sensor_id;sensor_type;location;lat;lon;timestamp;P1;P2;P0
70249;PMS5003;57644;48.416;-123.374;2022-09-24T00:02:24;8;7;
70249;PMS5003;57644;48.416;-123.374;2022-09-24T00:04:54;9;9;
70249;PMS5003;57644;48.416;-123.374;2022-09-24T00:07:24;8;8;
70249;PMS5003;57644;48.416;-123.374;2022-09-24T00:09:55;10;10;
70249;PMS5003;57644;48.416;-123.374;2022-09-24T00:12:25;13;13;
70249;PMS5003;57644;48.416;-123.374;2022-09-24T00:14:55;14;14;
70249;PMS5003;57644;48.416;-123.374;2022-09-24T00:17:26;10;9;
70249;PMS5003;57644;48.416;-123.374;2022-09-24T00:19:56;14;13;
70249;PMS5003;57644;48.416;-123.374;2022-09-24T00:22:26;16;15;
70249;PMS5003;57644;48.416;-123.374;2022-09-24T00:24:56;17;16;
70249;PMS5003;57644;48.416;-123.374;2022-09-24T00:27:26;17;15;
70249;PMS5003;57644;48.416;-123.374;2022-09-24T00:29:57;29;26;
70249;PMS5003;57644;48.416;-123.374;2022-09-24T00:32:27;14;14;
70249;PMS5003;57644;48.416;-123.374;2022-09-24T00:34:57;9;9;
70249;PMS5003;57644;48.416;-123.374;2022-09-24T00:37:28;10;9;
70249;PMS5003;57644;48.416;-123.374;2022-09-24T00:39:58;9;9;
70249;PMS5003;57644;48.416;-123.374;2022-09-24T00:42:28;11;9;
70249;PMS5003;57644;48.416;-123.374;2022-09-24T00:44:59;12;11;
70249;PMS5003;57644;48.416;-123.374;2022-09-24T00:47:31;9;9;
70249;PMS5003;57644;48.416;-123.374;2022-09-24T00:50:03;9;8;
70249;PMS5003;57644;48.416;-123.374;2022-09-24T00:52:30;9;9;
70249;PMS5003;57644;48.416;-123.374;2022-09-24T00:55:00;9;9;
70249;PMS5003;57644;48.416;-123.374;2022-09-24T00:57:30;10;10;
70249;PMS5003;57644;48.416;-123.374;2022-09-24T01:00:02;10;9;
70249;PMS5003;57644;48.416;-123.374;2022-09-24T01:02:31;11;11;
70249;PMS5003;57644;48.416;-123.374;2022-09-24T01:05:02;9;8;
70249;PMS5003;57644;48.416;-123.374;2022-09-24T01:07:32;14;13;
70249;PMS5003;57644;48.416;-123.374;2022-09-24T01:10:03;12;10;
70249;PMS5003;57644;48.416;-123.374;2022-09-24T01:12:34;10;10;
70249;PMS5003;57644;48.416;-123.374;2022-09-24T01:15:06;8;8;
70249;PMS5003;57644;48.416;-123.374;2022-09-24T01:17:35;25;23;
70249;PMS5003;57644;48.416;-123.374;2022-09-24T01:20:10;13;11;
70249;PMS5003;57644;48.416;-123.374;2022-09-24T01:22:38;19;16;
70249;PMS5003;57644;48.416;-123.374;2022-09-24T01:25:06;16;15;
70249;PMS5003;57644;48.416;-123.374;2022-09-24T01:27:41;20;19;
70249;PMS5003;57644;48.416;-123.374;2022-09-24T01:30:06;18;16;
70249;PMS5003;57644;48.416;-123.374;2022-09-24T01:32:38;16;14;
70249;PMS5003;57644;48.416;-123.374;2022-09-24T01:35:08;19;18;
70249;PMS5003;57644;48.416;-123.374;2022-09-24T01:37:37;11;10;
70249;PMS5003;57644;48.416;-123.374;2022-09-24T01:40:08;10;9;
70249;PMS5003;57644;48.416;-123.374;2022-09-24T01:42:37;15;13;
70249;PMS5003;57644;48.416;-123.374;2022-09-24T01:45:08;13;12;
70249;PMS5003;57644;48.416;-123.374;2022-09-24T01:47:38;9;9;
70249;PMS5003;57644;48.416;-123.374;2022-09-24T01:50:09;13;13;
70249;PMS5003;57644;48.416;-123.374;2022-09-24T01:52:39;13;13;
70249;PMS5003;57644;48.416;-123.374;2022-09-24T01:55:10;13;12;
70249;PMS5003;57644;48.416;-123.374;2022-09-24T01:57:39;20;16;
70249;PMS5003;57644;48.416;-123.374;2022-09-24T02:00:10;14;14;
70249;PMS5003;57644;48.416;-123.374;2022-09-24T02:02:40;10;10;
70249;PMS5003;57644;48.416;-123.374;2022-09-24T02:05:13;12;11;
70249;PMS5003;57644;48.416;-123.374;2022-09-24T02:07:41;8;8;
70249;PMS5003;57644;48.416;-123.374;2022-09-24T02:10:13;13;13;
70249;PMS5003;57644;48.416;-123.374;2022-09-24T02:12:41;13;13;
70249;PMS5003;57644;48.416;-123.374;2022-09-24T02:15:12;6;6;
70249;PMS5003;57644;48.416;-123.374;2022-09-24T02:17:42;7;7;
70249;PMS5003;57644;48.416;-123.374;2022-09-24T02:20:12;8;7;
70249;PMS5003;57644;48.416;-123.374;2022-09-24T02:22:42;11;10;
70249;PMS5003;57644;48.416;-123.374;2022-09-24T02:25:13;29;28;
70249;PMS5003;57644;48.416;-123.374;2022-09-24T02:27:42;24;22;
70249;PMS5003;57644;48.416;-123.374;2022-09-24T02:30:13;17;15;
70249;PMS5003;57644;48.416;-123.374;2022-09-24T02:32:43;27;22;
70249;PMS5003;57644;48.416;-123.374;2022-09-24T02:35:14;33;30;
70249;PMS5003;57644;48.416;-123.374;2022-09-24T02:37:44;16;16;
70249;PMS5003;57644;48.416;-123.374;2022-09-24T02:40:14;12;11;
70249;PMS5003;57644;48.416;-123.374;2022-09-24T02:42:44;41;36;
70249;PMS5003;57644;48.416;-123.374;2022-09-24T02:45:15;18;17;
70249;PMS5003;57644;48.416;-123.374;2022-09-24T02:47:45;14;12;
70249;PMS5003;57644;48.416;-123.374;2022-09-24T02:50:15;8;8;
70249;PMS5003;57644;48.416;-123.374;2022-09-24T02:52:45;8;7;
70249;PMS5003;57644;48.416;-123.374;2022-09-24T02:55:16;12;11;
70249;PMS5003;57644;48.416;-123.374;2022-09-24T02:57:46;19;17;
70249;PMS5003;57644;48.416;-123.374;2022-09-24T03:00:16;20;18;
70249;PMS5003;57644;48.416;-123.374;2022-09-24T03:02:46;23;21;
70249;PMS5003;57644;48.416;-123.374;2022-09-24T03:05:18;25;24;
70249;PMS5003;57644;48.416;-123.374;2022-09-24T03:07:46;16;16;
70249;PMS5003;57644;48.416;-123.374;2022-09-24T03:10:17;31;31;
70249;PMS5003;57644;48.416;-123.374;2022-09-24T03:12:47;17;16;
70249;PMS5003;57644;48.416;-123.374;2022-09-24T03:15:18;11;10;
70249;PMS5003;57644;48.416;-123.374;2022-09-24T03:17:48;17;16;
70249;PMS5003;57644;48.416;-123.374;2022-09-24T03:20:18;10;9;
70249;PMS5003;57644;48.416;-123.374;2022-09-24T03:22:49;9;9;
70249;PMS5003;57644;48.416;-123.374;2022-09-24T03:25:19;9;7;
70249;PMS5003;57644;48.416;-123.374;2022-09-24T03:27:49;9;9;
70249;PMS5003;57644;48.416;-123.374;2022-09-24T03:30:19;8;8;
70249;PMS5003;57644;48.416;-123.374;2022-09-24T03:32:50;14;12;
70249;PMS5003;57644;48.416;-123.374;2022-09-24T03:35:20;12;11;
70249;PMS5003;57644;48.416;-123.374;2022-09-24T03:37:50;12;11;
70249;PMS5003;57644;48.416;-123.374;2022-09-24T03:40:21;9;8;
70249;PMS5003;57644;48.416;-123.374;2022-09-24T03:42:52;8;8;
70249;PMS5003;57644;48.416;-123.374;2022-09-24T03:45:21;11;10;
70249;PMS5003;57644;48.416;-123.374;2022-09-24T03:47:52;13;10;
70249;PMS5003;57644;48.416;-123.374;2022-09-24T03:50:22;9;8;
70249;PMS5003;57644;48.416;-123.374;2022-09-24T03:52:52;10;8;
70249;PMS5003;57644;48.416;-123.374;2022-09-24T03:55:22;9;9;
70249;PMS5003;57644;48.416;-123.374;2022-09-24T03:57:52;10;9;
70249;PMS5003;57644;48.416;-123.374;2022-09-24T04:00:23;10;10;
70249;PMS5003;57644;48.416;-123.374;2022-09-24T04:02:53;11;11;
70249;PMS5003;57644;48.416;-123.374;2022-09-24T04:05:23;11;11;
70249;PMS5003;57644;48.416;-123.374;2022-09-24T04:07:53;12;12;
70249;PMS5003;57644;48.416;-123.374;2022-09-24T04:10:25;22;19;
70249;PMS5003;57644;48.416;-123.374;2022-09-24T04:12:54;21;20;
70249;PMS5003;57644;48.416;-123.374;2022-09-24T04:15:24;20;18;
70249;PMS5003;57644;48.416;-123.374;2022-09-24T04:17:56;18;17;
70249;PMS5003;57644;48.416;-123.374;2022-09-24T04:20:26;17;17;
70249;PMS5003;57644;48.416;-123.374;2022-09-24T04:22:57;10;10;
70249;PMS5003;57644;48.416;-123.374;2022-09-24T04:25:28;11;11;
70249;PMS5003;57644;48.416;-123.374;2022-09-24T04:27:57;18;18;
70249;PMS5003;57644;48.416;-123.374;2022-09-24T04:30:28;25;22;
70249;PMS5003;57644;48.416;-123.374;2022-09-24T04:32:58;28;28;
70249;PMS5003;57644;48.416;-123.374;2022-09-24T04:35:30;37;32;
70249;PMS5003;57644;48.416;-123.374;2022-09-24T04:37:59;15;13;
70249;PMS5003;57644;48.416;-123.374;2022-09-24T04:40:29;9;8;
70249;PMS5003;57644;48.416;-123.374;2022-09-24T04:42:59;9;8;
70249;PMS5003;57644;48.416;-123.374;2022-09-24T04:45:30;11;10;
70249;PMS5003;57644;48.416;-123.374;2022-09-24T04:48:00;10;10;
70249;PMS5003;57644;48.416;-123.374;2022-09-24T04:50:30;8;8;
70249;PMS5003;57644;48.416;-123.374;2022-09-24T04:53:01;9;9;
70249;PMS5003;57644;48.416;-123.374;2022-09-24T04:55:31;6;6;
70249;PMS5003;57644;48.416;-123.374;2022-09-24T04:58:01;8;8;
70249;PMS5003;57644;48.416;-123.374;2022-09-24T05:00:32;5;4;
70249;PMS5003;57644;48.416;-123.374;2022-09-24T05:03:02;6;6;
70249;PMS5003;57644;48.416;-123.374;2022-09-24T05:05:32;5;5;
70249;PMS5003;57644;48.416;-123.374;2022-09-24T05:08:02;8;7;
70249;PMS5003;57644;48.416;-123.374;2022-09-24T05:10:33;6;5;
70249;PMS5003;57644;48.416;-123.374;2022-09-24T05:13:03;4;4;
70249;PMS5003;57644;48.416;-123.374;2022-09-24T05:15:33;6;6;
70249;PMS5003;57644;48.416;-123.374;2022-09-24T05:18:04;5;5;
70249;PMS5003;57644;48.416;-123.374;2022-09-24T05:20:34;8;8;
70249;PMS5003;57644;48.416;-123.374;2022-09-24T05:23:04;4;4;
70249;PMS5003;57644;48.416;-123.374;2022-09-24T05:25:35;3;3;
70249;PMS5003;57644;48.416;-123.374;2022-09-24T05:28:05;5;5;
70249;PMS5003;57644;48.416;-123.374;2022-09-24T05:30:35;4;4;
70249;PMS5003;57644;48.416;-123.374;2022-09-24T05:33:06;5;4;
70249;PMS5003;57644;48.416;-123.374;2022-09-24T05:35:36;2;2;
70249;PMS5003;57644;48.416;-123.374;2022-09-24T05:38:07;3;3;
70249;PMS5003;57644;48.416;-123.374;2022-09-24T05:40:37;5;4;
70249;PMS5003;57644;48.416;-123.374;2022-09-24T05:43:07;3;3;
70249;PMS5003;57644;48.416;-123.374;2022-09-24T05:45:37;3;3;
70249;PMS5003;57644;48.416;-123.374;2022-09-24T05:48:08;5;4;
70249;PMS5003;57644;48.416;-123.374;2022-09-24T05:50:38;4;4;
70249;PMS5003;57644;48.416;-123.374;2022-09-24T05:53:08;5;5;
70249;PMS5003;57644;48.416;-123.374;2022-09-24T05:55:39;5;5;
70249;PMS5003;57644;48.416;-123.374;2022-09-24T05:58:09;5;4;
70249;PMS5003;57644;48.416;-123.374;2022-09-24T06:00:39;3;3;
70249;PMS5003;57644;48.416;-123.374;2022-09-24T06:03:11;2;2;
70249;PMS5003;57644;48.416;-123.374;2022-09-24T06:05:42;4;4;
70249;PMS5003;57644;48.416;-123.374;2022-09-24T06:08:11;5;4;
70249;PMS5003;57644;48.416;-123.374;2022-09-24T06:10:42;4;4;
70249;PMS5003;57644;48.416;-123.374;2022-09-24T06:13:11;3;3;
70249;PMS5003;57644;48.416;-123.374;2022-09-24T06:15:42;2;2;
70249;PMS5003;57644;48.416;-123.374;2022-09-24T06:18:12;2;2;
70249;PMS5003;57644;48.416;-123.374;2022-09-24T06:20:42;2;2;
70249;PMS5003;57644;48.416;-123.374;2022-09-24T06:23:13;1;1;
70249;PMS5003;57644;48.416;-123.374;2022-09-24T06:25:43;2;2;
70249;PMS5003;57644;48.416;-123.374;2022-09-24T06:28:13;2;2;
70249;PMS5003;57644;48.416;-123.374;2022-09-24T06:30:44;2;2;
70249;PMS5003;57644;48.416;-123.374;2022-09-24T06:33:14;3;2;
70249;PMS5003;57644;48.416;-123.374;2022-09-24T06:35:45;2;2;
70249;PMS5003;57644;48.416;-123.374;2022-09-24T06:38:16;2;2;
70249;PMS5003;57644;48.416;-123.374;2022-09-24T06:40:46;1;1;
70249;PMS5003;57644;48.416;-123.374;2022-09-24T06:43:16;2;2;
70249;PMS5003;57644;48.416;-123.374;2022-09-24T06:45:46;1;1;
70249;PMS5003;57644;48.416;-123.374;2022-09-24T06:48:16;0;0;
70249;PMS5003;57644;48.416;-123.374;2022-09-24T06:50:47;2;2;
70249;PMS5003;57644;48.416;-123.374;2022-09-24T06:53:17;1;1;
70249;PMS5003;57644;48.416;-123.374;2022-09-24T06:55:47;1;1;
70249;PMS5003;57644;48.416;-123.374;2022-09-24T06:58:18;1;1;
70249;PMS5003;57644;48.416;-123.374;2022-09-24T07:00:50;1;1;
70249;PMS5003;57644;48.416;-123.374;2022-09-24T07:03:18;1;1;
70249;PMS5003;57644;48.416;-123.374;2022-09-24T07:05:49;1;1;
70249;PMS5003;57644;48.416;-123.374;2022-09-24T07:08:19;1;1;
70249;PMS5003;57644;48.416;-123.374;2022-09-24T07:10:50;2;2;
70249;PMS5003;57644;48.416;-123.374;2022-09-24T07:13:20;2;2;
70249;PMS5003;57644;48.416;-123.374;2022-09-24T07:15:50;2;2;
70249;PMS5003;57644;48.416;-123.374;2022-09-24T07:18:20;1;1;
70249;PMS5003;57644;48.416;-123.374;2022-09-24T07:20:51;0;0;
70249;PMS5003;57644;48.416;-123.374;2022-09-24T07:23:21;2;2;
70249;PMS5003;57644;48.416;-123.374;2022-09-24T07:25:54;2;2;
70249;PMS5003;57644;48.416;-123.374;2022-09-24T07:28:22;1;1;
70249;PMS5003;57644;48.416;-123.374;2022-09-24T07:30:56;1;1;
70249;PMS5003;57644;48.416;-123.374;2022-09-24T07:33:23;2;2;
70249;PMS5003;57644;48.416;-123.374;2022-09-24T07:35:53;2;2;
70249;PMS5003;57644;48.416;-123.374;2022-09-24T07:38:24;3;2;
70249;PMS5003;57644;48.416;-123.374;2022-09-24T07:40:56;3;3;
70249;PMS5003;57644;48.416;-123.374;2022-09-24T07:43:24;5;4;
70249;PMS5003;57644;48.416;-123.374;2022-09-24T07:45:54;3;3;
70249;PMS5003;57644;48.416;-123.374;2022-09-24T07:48:25;2;2;
70249;PMS5003;57644;48.416;-123.374;2022-09-24T07:50:56;3;3;
70249;PMS5003;57644;48.416;-123.374;2022-09-24T07:53:26;3;3;
70249;PMS5003;57644;48.416;-123.374;2022-09-24T07:55:57;3;3;
70249;PMS5003;57644;48.416;-123.374;2022-09-24T07:58:26;2;2;
70249;PMS5003;57644;48.416;-123.374;2022-09-24T08:00:57;3;3;
70249;PMS5003;57644;48.416;-123.374;2022-09-24T08:03:27;1;1;
70249;PMS5003;57644;48.416;-123.374;2022-09-24T08:05:57;4;4;
70249;PMS5003;57644;48.416;-123.374;2022-09-24T08:08:28;2;2;
70249;PMS5003;57644;48.416;-123.374;2022-09-24T08:11:01;2;2;
70249;PMS5003;57644;48.416;-123.374;2022-09-24T08:13:28;1;1;
70249;PMS5003;57644;48.416;-123.374;2022-09-24T08:15:59;4;4;
70249;PMS5003;57644;48.416;-123.374;2022-09-24T08:18:30;2;2;
70249;PMS5003;57644;48.416;-123.374;2022-09-24T08:21:02;2;2;
70249;PMS5003;57644;48.416;-123.374;2022-09-24T08:23:30;4;4;
70249;PMS5003;57644;48.416;-123.374;2022-09-24T08:26:00;3;3;
70249;PMS5003;57644;48.416;-123.374;2022-09-24T08:28:31;2;2;
70249;PMS5003;57644;48.416;-123.374;2022-09-24T08:31:02;2;2;
70249;PMS5003;57644;48.416;-123.374;2022-09-24T08:33:31;1;1;
70249;PMS5003;57644;48.416;-123.374;2022-09-24T08:36:03;0;0;
70249;PMS5003;57644;48.416;-123.374;2022-09-24T08:38:32;1;1;
70249;PMS5003;57644;48.416;-123.374;2022-09-24T08:41:06;2;2;
70249;PMS5003;57644;48.416;-123.374;2022-09-24T08:43:36;0;0;
70249;PMS5003;57644;48.416;-123.374;2022-09-24T08:46:07;2;1;
70249;PMS5003;57644;48.416;-123.374;2022-09-24T08:48:35;2;2;
70249;PMS5003;57644;48.416;-123.374;2022-09-24T08:51:05;1;1;
70249;PMS5003;57644;48.416;-123.374;2022-09-24T08:53:37;2;2;
70249;PMS5003;57644;48.416;-123.374;2022-09-24T08:56:05;3;3;
70249;PMS5003;57644;48.416;-123.374;2022-09-24T08:58:36;1;1;
70249;PMS5003;57644;48.416;-123.374;2022-09-24T09:01:09;1;1;
70249;PMS5003;57644;48.416;-123.374;2022-09-24T09:03:39;2;2;
70249;PMS5003;57644;48.416;-123.374;2022-09-24T09:06:09;4;4;
70249;PMS5003;57644;48.416;-123.374;2022-09-24T09:08:39;2;2;
70249;PMS5003;57644;48.416;-123.374;2022-09-24T09:11:08;2;2;
70249;PMS5003;57644;48.416;-123.374;2022-09-24T09:13:38;2;2;
70249;PMS5003;57644;48.416;-123.374;2022-09-24T09:16:11;2;1;
70249;PMS5003;57644;48.416;-123.374;2022-09-24T09:18:40;1;1;
70249;PMS5003;57644;48.416;-123.374;2022-09-24T09:21:12;2;2;
70249;PMS5003;57644;48.416;-123.374;2022-09-24T09:23:42;2;2;
70249;PMS5003;57644;48.416;-123.374;2022-09-24T09:26:09;2;2;
70249;PMS5003;57644;48.416;-123.374;2022-09-24T09:31:12;1;1;
70249;PMS5003;57644;48.416;-123.374;2022-09-24T09:33:45;3;2;
70249;PMS5003;57644;48.416;-123.374;2022-09-24T09:36:17;1;1;
70249;PMS5003;57644;48.416;-123.374;2022-09-24T09:38:42;2;2;
70249;PMS5003;57644;48.416;-123.374;2022-09-24T09:41:13;1;1;
70249;PMS5003;57644;48.416;-123.374;2022-09-24T09:43:42;1;1;
70249;PMS5003;57644;48.416;-123.374;2022-09-24T09:46:13;1;1;
70249;PMS5003;57644;48.416;-123.374;2022-09-24T09:48:43;0;0;
70249;PMS5003;57644;48.416;-123.374;2022-09-24T09:51:16;0;0;
70249;PMS5003;57644;48.416;-123.374;2022-09-24T09:56:13;2;2;
70249;PMS5003;57644;48.416;-123.374;2022-09-24T09:58:44;1;1;
70249;PMS5003;57644;48.416;-123.374;2022-09-24T10:01:15;0;0;
70249;PMS5003;57644;48.416;-123.374;2022-09-24T10:03:46;2;2;
70249;PMS5003;57644;48.416;-123.374;2022-09-24T10:08:45;0;0;
70249;PMS5003;57644;48.416;-123.374;2022-09-24T10:11:16;1;1;
70249;PMS5003;57644;48.416;-123.374;2022-09-24T10:16:17;2;2;
70249;PMS5003;57644;48.416;-123.374;2022-09-24T10:18:47;2;2;
70249;PMS5003;57644;48.416;-123.374;2022-09-24T10:23:48;0;0;
70249;PMS5003;57644;48.416;-123.374;2022-09-24T10:26:18;1;1;
70249;PMS5003;57644;48.416;-123.374;2022-09-24T10:28:49;1;1;
70249;PMS5003;57644;48.416;-123.374;2022-09-24T10:31:19;1;1;
70249;PMS5003;57644;48.416;-123.374;2022-09-24T10:33:50;2;1;
70249;PMS5003;57644;48.416;-123.374;2022-09-24T10:36:20;2;2;
70249;PMS5003;57644;48.416;-123.374;2022-09-24T10:41:23;2;2;
70249;PMS5003;57644;48.416;-123.374;2022-09-24T10:43:50;1;1;
70249;PMS5003;57644;48.416;-123.374;2022-09-24T10:48:53;2;2;
70249;PMS5003;57644;48.416;-123.374;2022-09-24T10:51:27;2;2;
70249;PMS5003;57644;48.416;-123.374;2022-09-24T10:53:55;2;2;
70249;PMS5003;57644;48.416;-123.374;2022-09-24T10:56:24;3;3;
70249;PMS5003;57644;48.416;-123.374;2022-09-24T10:59:01;3;3;
70249;PMS5003;57644;48.416;-123.374;2022-09-24T11:01:24;2;2;
70249;PMS5003;57644;48.416;-123.374;2022-09-24T11:03:58;2;2;
70249;PMS5003;57644;48.416;-123.374;2022-09-24T11:06:28;3;3;
70249;PMS5003;57644;48.416;-123.374;2022-09-24T11:08:58;3;2;
70249;PMS5003;57644;48.416;-123.374;2022-09-24T11:11:28;4;4;
70249;PMS5003;57644;48.416;-123.374;2022-09-24T11:16:30;2;2;
70249;PMS5003;57644;48.416;-123.374;2022-09-24T11:18:57;2;2;
70249;PMS5003;57644;48.416;-123.374;2022-09-24T11:21:29;2;2;
70249;PMS5003;57644;48.416;-123.374;2022-09-24T11:24:02;2;2;
70249;PMS5003;57644;48.416;-123.374;2022-09-24T11:26:28;1;1;
70249;PMS5003;57644;48.416;-123.374;2022-09-24T11:31:30;2;1;
70249;PMS5003;57644;48.416;-123.374;2022-09-24T11:34:03;2;2;
70249;PMS5003;57644;48.416;-123.374;2022-09-24T11:36:32;3;3;
70249;PMS5003;57644;48.416;-123.374;2022-09-24T11:39:11;3;3;
70249;PMS5003;57644;48.416;-123.374;2022-09-24T11:41:32;3;3;
70249;PMS5003;57644;48.416;-123.374;2022-09-24T11:44:04;1;1;
70249;PMS5003;57644;48.416;-123.374;2022-09-24T11:46:35;3;2;
70249;PMS5003;57644;48.416;-123.374;2022-09-24T11:51:35;4;4;
70249;PMS5003;57644;48.416;-123.374;2022-09-24T11:54:02;5;4;
70249;PMS5003;57644;48.416;-123.374;2022-09-24T11:56:32;4;4;
70249;PMS5003;57644;48.416;-123.374;2022-09-24T11:59:04;4;4;
70249;PMS5003;57644;48.416;-123.374;2022-09-24T12:01:33;5;5;
70249;PMS5003;57644;48.416;-123.374;2022-09-24T12:04:04;5;4;
70249;PMS5003;57644;48.416;-123.374;2022-09-24T12:06:34;4;4;
70249;PMS5003;57644;48.416;-123.374;2022-09-24T12:09:06;4;4;
70249;PMS5003;57644;48.416;-123.374;2022-09-24T12:11:35;4;4;
70249;PMS5003;57644;48.416;-123.374;2022-09-24T12:14:07;3;3;
70249;PMS5003;57644;48.416;-123.374;2022-09-24T12:16:35;4;4;
70249;PMS5003;57644;48.416;-123.374;2022-09-24T12:19:07;4;4;
70249;PMS5003;57644;48.416;-123.374;2022-09-24T12:21:36;5;4;
70249;PMS5003;57644;48.416;-123.374;2022-09-24T12:24:08;3;3;
70249;PMS5003;57644;48.416;-123.374;2022-09-24T12:26:36;2;2;
70249;PMS5003;57644;48.416;-123.374;2022-09-24T12:29:11;4;4;
70249;PMS5003;57644;48.416;-123.374;2022-09-24T12:31:39;3;3;
70249;PMS5003;57644;48.416;-123.374;2022-09-24T12:34:09;3;3;
70249;PMS5003;57644;48.416;-123.374;2022-09-24T12:36:41;3;3;
70249;PMS5003;57644;48.416;-123.374;2022-09-24T12:39:08;8;7;
70249;PMS5003;57644;48.416;-123.374;2022-09-24T12:44:12;5;5;
70249;PMS5003;57644;48.416;-123.374;2022-09-24T12:46:40;5;5;
70249;PMS5003;57644;48.416;-123.374;2022-09-24T12:49:14;4;3;
70249;PMS5003;57644;48.416;-123.374;2022-09-24T12:51:40;4;4;
70249;PMS5003;57644;48.416;-123.374;2022-09-24T12:54:17;3;3;
70249;PMS5003;57644;48.416;-123.374;2022-09-24T12:56:41;5;5;
70249;PMS5003;57644;48.416;-123.374;2022-09-24T13:01:41;4;4;
70249;PMS5003;57644;48.416;-123.374;2022-09-24T13:06:43;6;6;
70249;PMS5003;57644;48.416;-123.374;2022-09-24T13:11:43;5;5;
70249;PMS5003;57644;48.416;-123.374;2022-09-24T13:14:18;4;3;
70249;PMS5003;57644;48.416;-123.374;2022-09-24T13:16:45;4;4;
70249;PMS5003;57644;48.416;-123.374;2022-09-24T13:19:20;3;3;
70249;PMS5003;57644;48.416;-123.374;2022-09-24T13:21:51;5;5;
70249;PMS5003;57644;48.416;-123.374;2022-09-24T13:26:45;4;4;
70249;PMS5003;57644;48.416;-123.374;2022-09-24T13:31:46;2;2;
70249;PMS5003;57644;48.416;-123.374;2022-09-24T13:34:17;3;3;
70249;PMS5003;57644;48.416;-123.374;2022-09-24T13:36:48;3;3;
70249;PMS5003;57644;48.416;-123.374;2022-09-24T13:39:19;3;3;
70249;PMS5003;57644;48.416;-123.374;2022-09-24T13:41:49;3;2;
70249;PMS5003;57644;48.416;-123.374;2022-09-24T13:44:19;2;2;
70249;PMS5003;57644;48.416;-123.374;2022-09-24T13:46:49;1;1;
70249;PMS5003;57644;48.416;-123.374;2022-09-24T13:49:18;3;3;
70249;PMS5003;57644;48.416;-123.374;2022-09-24T13:51:50;2;2;
70249;PMS5003;57644;48.416;-123.374;2022-09-24T13:54:20;3;3;
70249;PMS5003;57644;48.416;-123.374;2022-09-24T13:59:19;2;2;
70249;PMS5003;57644;48.416;-123.374;2022-09-24T14:01:50;0;0;
70249;PMS5003;57644;48.416;-123.374;2022-09-24T14:04:20;2;2;
70249;PMS5003;57644;48.416;-123.374;2022-09-24T14:06:51;1;1;
70249;PMS5003;57644;48.416;-123.374;2022-09-24T14:09:25;2;2;
70249;PMS5003;57644;48.416;-123.374;2022-09-24T14:11:53;2;2;
70249;PMS5003;57644;48.416;-123.374;2022-09-24T14:14:22;2;2;
70249;PMS5003;57644;48.416;-123.374;2022-09-24T14:16:52;2;2;
70249;PMS5003;57644;48.416;-123.374;2022-09-24T14:19:22;3;3;
70249;PMS5003;57644;48.416;-123.374;2022-09-24T14:21:53;0;0;
70249;PMS5003;57644;48.416;-123.374;2022-09-24T14:24:24;2;2;
70249;PMS5003;57644;48.416;-123.374;2022-09-24T14:26:54;2;2;
70249;PMS5003;57644;48.416;-123.374;2022-09-24T14:29:25;1;1;
70249;PMS5003;57644;48.416;-123.374;2022-09-24T14:31:57;3;3;
70249;PMS5003;57644;48.416;-123.374;2022-09-24T14:34:26;3;3;
70249;PMS5003;57644;48.416;-123.374;2022-09-24T14:36:56;2;2;
70249;PMS5003;57644;48.416;-123.374;2022-09-24T14:39:26;3;2;
70249;PMS5003;57644;48.416;-123.374;2022-09-24T14:41:56;3;3;
70249;PMS5003;57644;48.416;-123.374;2022-09-24T14:44:27;4;4;
70249;PMS5003;57644;48.416;-123.374;2022-09-24T14:46:57;3;3;
70249;PMS5003;57644;48.416;-123.374;2022-09-24T14:49:28;5;5;
70249;PMS5003;57644;48.416;-123.374;2022-09-24T14:51:58;6;6;
70249;PMS5003;57644;48.416;-123.374;2022-09-24T14:54:30;5;5;
70249;PMS5003;57644;48.416;-123.374;2022-09-24T14:59:29;3;3;
70249;PMS5003;57644;48.416;-123.374;2022-09-24T15:04:29;3;3;
70249;PMS5003;57644;48.416;-123.374;2022-09-24T15:07:00;4;4;
70249;PMS5003;57644;48.416;-123.374;2022-09-24T15:09:30;5;5;
70249;PMS5003;57644;48.416;-123.374;2022-09-24T15:12:05;3;3;
70249;PMS5003;57644;48.416;-123.374;2022-09-24T15:14:31;5;5;
70249;PMS5003;57644;48.416;-123.374;2022-09-24T15:19:32;4;4;
70249;PMS5003;57644;48.416;-123.374;2022-09-24T15:22:02;5;5;
70249;PMS5003;57644;48.416;-123.374;2022-09-24T15:24:33;4;4;
70249;PMS5003;57644;48.416;-123.374;2022-09-24T15:27:04;3;3;
70249;PMS5003;57644;48.416;-123.374;2022-09-24T15:29:33;2;2;
70249;PMS5003;57644;48.416;-123.374;2022-09-24T15:32:04;2;2;
70249;PMS5003;57644;48.416;-123.374;2022-09-24T15:34:34;2;2;
70249;PMS5003;57644;48.416;-123.374;2022-09-24T15:37:07;3;3;
70249;PMS5003;57644;48.416;-123.374;2022-09-24T15:39:35;1;1;
70249;PMS5003;57644;48.416;-123.374;2022-09-24T15:42:06;2;2;
70249;PMS5003;57644;48.416;-123.374;2022-09-24T15:44:36;4;3;
70249;PMS5003;57644;48.416;-123.374;2022-09-24T15:47:06;4;4;
70249;PMS5003;57644;48.416;-123.374;2022-09-24T15:49:36;3;3;
70249;PMS5003;57644;48.416;-123.374;2022-09-24T15:52:08;2;2;
70249;PMS5003;57644;48.416;-123.374;2022-09-24T15:54:37;2;2;
70249;PMS5003;57644;48.416;-123.374;2022-09-24T15:57:08;2;2;
70249;PMS5003;57644;48.416;-123.374;2022-09-24T15:59:38;4;3;
70249;PMS5003;57644;48.416;-123.374;2022-09-24T16:02:12;4;3;
70249;PMS5003;57644;48.416;-123.374;2022-09-24T16:04:38;5;4;
70249;PMS5003;57644;48.416;-123.374;2022-09-24T16:07:09;2;2;
70249;PMS5003;57644;48.416;-123.374;2022-09-24T16:09:39;2;2;
70249;PMS5003;57644;48.416;-123.374;2022-09-24T16:12:11;3;3;
70249;PMS5003;57644;48.416;-123.374;2022-09-24T16:14:40;2;2;
70249;PMS5003;57644;48.416;-123.374;2022-09-24T16:17:10;2;2;
70249;PMS5003;57644;48.416;-123.374;2022-09-24T16:19:41;3;3;
70249;PMS5003;57644;48.416;-123.374;2022-09-24T16:22:11;3;3;
70249;PMS5003;57644;48.416;-123.374;2022-09-24T16:24:41;1;1;
70249;PMS5003;57644;48.416;-123.374;2022-09-24T16:27:12;3;3;
70249;PMS5003;57644;48.416;-123.374;2022-09-24T16:29:42;2;2;
70249;PMS5003;57644;48.416;-123.374;2022-09-24T16:32:12;2;2;
70249;PMS5003;57644;48.416;-123.374;2022-09-24T16:34:43;2;2;
70249;PMS5003;57644;48.416;-123.374;2022-09-24T16:37:13;3;2;
70249;PMS5003;57644;48.416;-123.374;2022-09-24T16:39:43;2;2;
70249;PMS5003;57644;48.416;-123.374;2022-09-24T16:42:13;2;2;
70249;PMS5003;57644;48.416;-123.374;2022-09-24T16:44:44;2;2;
70249;PMS5003;57644;48.416;-123.374;2022-09-24T16:47:14;1;1;
70249;PMS5003;57644;48.416;-123.374;2022-09-24T16:49:45;1;1;
70249;PMS5003;57644;48.416;-123.374;2022-09-24T16:52:15;1;1;
70249;PMS5003;57644;48.416;-123.374;2022-09-24T16:54:45;0;0;
70249;PMS5003;57644;48.416;-123.374;2022-09-24T16:57:15;2;1;
70249;PMS5003;57644;48.416;-123.374;2022-09-24T16:59:46;2;2;
70249;PMS5003;57644;48.416;-123.374;2022-09-24T17:02:16;2;1;
70249;PMS5003;57644;48.416;-123.374;2022-09-24T17:04:46;2;2;